Time;durP1;ratioP1;P1;durP2;ratioP2;P2;SDS_P1;SDS_P2;PMS_P1;PMS_P2;Temp;Humidity;BMP_temperature;BMP_pressure;BME280_temperature;BME280_humidity;BME280_pressure;Samples;Min_cycle;Max_cycle;Signal;HPM_P1;HPM_P2
2021/07/28 00:00:29;;;;;;;19.95;18.45;;;19.80;86.40;;;;;;5037537;29;20132;-71
2021/07/28 00:03:01;;;;;;;19.65;18.10;;;19.80;86.20;;;;;;5037072;29;20531;-72
2021/07/28 00:05:33;;;;;;;19.40;17.90;;;19.80;86.40;;;;;;5033705;29;20041;-72
2021/07/28 00:08:05;;;;;;;20.60;18.90;;;19.80;86.10;;;;;;5038056;29;20043;-71
2021/07/28 00:10:37;;;;;;;21.25;19.40;;;19.80;86.90;;;;;;5036420;29;20052;-72
2021/07/28 00:13:09;;;;;;;20.38;18.88;;;19.80;86.20;;;;;;5036040;29;20493;-72
2021/07/28 00:15:41;;;;;;;19.30;17.80;;;19.80;85.90;;;;;;5038670;29;20136;-71
2021/07/28 00:18:25;;;;;;;20.48;18.88;;;19.80;85.60;;;;;;5036865;29;20109;-71
2021/07/28 00:23:47;;;;;;;19.88;18.38;;;19.80;86.30;;;;;;5033161;29;20587;-72
2021/07/28 00:26:19;;;;;;;20.05;18.55;;;19.70;86.20;;;;;;5041284;29;20053;-73
2021/07/28 00:28:51;;;;;;;19.95;18.35;;;19.70;86.10;;;;;;5034947;29;20057;-71
2021/07/28 00:31:23;;;;;;;19.95;18.30;;;19.70;86.10;;;;;;5039481;29;20052;-72
2021/07/28 00:33:55;;;;;;;19.60;18.00;;;19.60;85.90;;;;;;5039271;29;20523;-72
2021/07/28 00:36:27;;;;;;;19.77;18.10;;;19.60;86.70;;;;;;5040394;29;20054;-73
2021/07/28 00:38:59;;;;;;;20.15;18.55;;;19.60;86.50;;;;;;5042756;29;20036;-73
2021/07/28 00:41:31;;;;;;;19.77;18.27;;;19.50;86.30;;;;;;5034758;29;20060;-72
2021/07/28 00:44:03;;;;;;;19.73;18.33;;;19.50;86.20;;;;;;5039833;29;20144;-72
2021/07/28 00:46:35;;;;;;;19.33;17.83;;;19.40;86.20;;;;;;5039537;29;20113;-71
2021/07/28 00:49:07;;;;;;;19.73;18.10;;;19.40;87.40;;;;;;5028280;29;20060;-71
2021/07/28 00:51:40;;;;;;;19.95;18.08;;;19.30;86.70;;;;;;5020437;29;20056;-72
2021/07/28 00:54:12;;;;;;;19.75;18.02;;;19.30;86.80;;;;;;5040730;29;21296;-72
2021/07/28 00:56:44;;;;;;;20.08;18.48;;;19.30;87.00;;;;;;5039574;29;20139;-71
2021/07/28 00:59:15;;;;;;;19.63;18.13;;;19.30;87.00;;;;;;5040895;29;20195;-71
2021/07/28 01:01:52;;;;;;;20.00;18.40;;;19.20;86.90;;;;;;5043575;29;20523;-71
2021/07/28 01:04:24;;;;;;;20.25;18.65;;;19.20;86.80;;;;;;5039217;29;20089;-71
2021/07/28 01:06:58;;;;;;;20.02;18.33;;;19.20;86.70;;;;;;5037123;29;20053;-72
2021/07/28 01:09:30;;;;;;;19.88;18.38;;;19.10;86.70;;;;;;5040469;29;20124;-72
2021/07/28 01:12:05;;;;;;;20.08;18.55;;;19.10;86.90;;;;;;5038450;29;20519;-72
2021/07/28 01:14:37;;;;;;;20.20;18.50;;;19.10;87.00;;;;;;5033860;29;20052;-73
2021/07/28 01:17:09;;;;;;;20.65;19.05;;;19.10;87.10;;;;;;5038008;29;20057;-72
2021/07/28 01:19:48;;;;;;;20.00;18.50;;;19.10;87.60;;;;;;5040920;29;20056;-71
2021/07/28 01:22:22;;;;;;;20.13;18.52;;;19.10;87.80;;;;;;5039718;29;20077;-71
2021/07/28 01:24:54;;;;;;;20.25;18.65;;;19.10;87.20;;;;;;5040691;29;20160;-71
2021/07/28 01:27:27;;;;;;;20.33;18.83;;;19.10;86.60;;;;;;5036757;29;20073;-71
2021/07/28 01:30:00;;;;;;;19.85;18.15;;;19.10;87.10;;;;;;5034770;29;20049;-71
2021/07/28 01:32:35;;;;;;;19.95;18.45;;;19.20;86.50;;;;;;5028222;29;20053;-73
2021/07/28 01:35:09;;;;;;;19.80;18.33;;;19.10;87.00;;;;;;5036065;29;20037;-71
2021/07/28 01:37:43;;;;;;;20.00;18.50;;;19.10;86.40;;;;;;5037758;29;20503;-71
2021/07/28 01:40:15;;;;;;;19.92;18.27;;;19.00;86.30;;;;;;5039574;29;20144;-72
2021/07/28 01:42:47;;;;;;;20.13;18.48;;;19.00;86.30;;;;;;5040856;29;20099;-71
2021/07/28 01:45:20;;;;;;;19.92;18.20;;;19.00;86.20;;;;;;5039296;29;20424;-71
2021/07/28 01:47:52;;;;;;;20.40;18.80;;;19.00;86.10;;;;;;5035759;29;20072;-73
2021/07/28 01:50:24;;;;;;;20.05;18.52;;;19.00;86.40;;;;;;5037247;29;20172;-72
2021/07/28 01:53:01;;;;;;;19.77;18.08;;;19.00;86.50;;;;;;5039021;29;20096;-71
2021/07/28 01:55:33;;;;;;;19.33;17.75;;;18.90;86.40;;;;;;5037604;29;20124;-72
2021/07/28 01:58:05;;;;;;;19.92;18.17;;;18.90;86.50;;;;;;5041318;29;20772;-71
2021/07/28 02:00:38;;;;;;;20.33;18.73;;;18.80;86.90;;;;;;5037914;29;20056;-71
2021/07/28 02:03:10;;;;;;;19.50;18.00;;;18.80;86.50;;;;;;5038526;29;20097;-72
2021/07/28 02:05:43;;;;;;;19.83;18.33;;;18.80;86.30;;;;;;5038414;29;20073;-72
2021/07/28 02:08:16;;;;;;;20.00;18.35;;;18.80;86.10;;;;;;5039481;29;20052;-71
2021/07/28 02:10:49;;;;;;;19.85;18.35;;;18.80;86.20;;;;;;5037806;29;20080;-71
2021/07/28 02:13:23;;;;;;;20.40;18.60;;;18.80;85.80;;;;;;5037700;29;20148;-71
2021/07/28 02:15:55;;;;;;;20.15;18.38;;;18.80;86.00;;;;;;5037828;29;20524;-71
2021/07/28 02:18:29;;;;;;;19.95;18.20;;;18.80;86.50;;;;;;5039510;29;20040;-71
2021/07/28 02:21:04;;;;;;;20.20;18.60;;;18.80;86.20;;;;;;5038294;29;20057;-71
2021/07/28 02:23:37;;;;;;;20.15;18.60;;;18.80;86.60;;;;;;5041532;29;20060;-71
2021/07/28 02:26:09;;;;;;;20.52;18.65;;;18.70;86.50;;;;;;5037056;29;20093;-71
2021/07/28 02:28:41;;;;;;;19.83;18.13;;;18.70;86.60;;;;;;5038915;29;20120;-71
2021/07/28 02:31:13;;;;;;;19.52;18.02;;;18.70;86.30;;;;;;5031584;29;20575;-72
2021/07/28 02:33:45;;;;;;;20.15;18.30;;;18.70;87.40;;;;;;5036644;29;20826;-71
2021/07/28 02:36:17;;;;;;;20.15;18.65;;;18.70;86.70;;;;;;5033816;29;20045;-73
2021/07/28 02:38:49;;;;;;;19.90;18.40;;;18.60;86.50;;;;;;5035836;29;20072;-71
2021/07/28 02:41:20;;;;;;;19.92;18.38;;;18.60;86.30;;;;;;5006676;29;20052;-71
2021/07/28 02:43:52;;;;;;;20.35;18.42;;;18.60;86.40;;;;;;5022342;29;20069;-71
2021/07/28 02:46:24;;;;;;;19.92;18.30;;;18.60;86.90;;;;;;5037252;29;20056;-71
2021/07/28 02:48:56;;;;;;;20.35;18.58;;;18.50;87.40;;;;;;5033211;29;20540;-72
2021/07/28 02:51:28;;;;;;;19.83;18.17;;;18.50;87.30;;;;;;5034773;29;20077;-70
2021/07/28 02:54:00;;;;;;;19.90;18.40;;;18.50;87.00;;;;;;5032726;29;20053;-71
2021/07/28 02:56:33;;;;;;;19.45;17.92;;;18.40;86.90;;;;;;5033789;29;20143;-72
2021/07/28 02:59:04;;;;;;;20.58;18.98;;;18.40;87.00;;;;;;5041222;29;20041;-71
2021/07/28 03:01:36;;;;;;;20.27;18.50;;;18.40;87.40;;;;;;5036448;29;20189;-70
2021/07/28 03:04:08;;;;;;;20.25;18.65;;;18.40;87.90;;;;;;5034904;29;20049;-71
2021/07/28 03:06:40;;;;;;;20.15;18.60;;;18.40;88.30;;;;;;5036864;29;20469;-72
2021/07/28 03:09:13;;;;;;;20.50;18.83;;;18.40;87.70;;;;;;5037025;29;20053;-71
2021/07/28 03:11:44;;;;;;;19.60;17.90;;;18.40;87.40;;;;;;5033736;29;20069;-70
2021/07/28 03:14:16;;;;;;;20.05;18.27;;;18.40;87.40;;;;;;5032150;29;20508;-71
2021/07/28 03:16:49;;;;;;;20.95;19.25;;;18.40;88.20;;;;;;5031551;29;20516;-70
2021/07/28 03:19:21;;;;;;;19.63;18.10;;;18.40;88.60;;;;;;5033169;29;20123;-71
2021/07/28 03:21:52;;;;;;;20.13;18.63;;;18.40;87.80;;;;;;5033126;29;20061;-72
2021/07/28 03:24:24;;;;;;;19.83;18.33;;;18.40;87.70;;;;;;5032094;29;20108;-73
2021/07/28 03:26:56;;;;;;;20.10;18.40;;;18.40;87.80;;;;;;5036892;29;20109;-71
2021/07/28 03:29:28;;;;;;;19.33;17.70;;;18.40;87.90;;;;;;5032821;29;20135;-72
2021/07/28 03:32:00;;;;;;;19.98;18.27;;;18.40;87.90;;;;;;5033929;29;20093;-70
2021/07/28 03:34:33;;;;;;;20.58;18.77;;;18.40;88.20;;;;;;5034916;29;20080;-72
2021/07/28 03:37:05;;;;;;;20.40;18.85;;;18.40;87.60;;;;;;5032129;29;20045;-71
2021/07/28 03:39:37;;;;;;;20.92;19.23;;;18.40;88.40;;;;;;5016138;29;20405;-70
2021/07/28 03:42:09;;;;;;;21.30;19.50;;;18.40;88.70;;;;;;5001835;29;20057;-70
2021/07/28 03:44:41;;;;;;;20.52;18.92;;;18.40;88.00;;;;;;5019366;29;20528;-70
2021/07/28 03:47:13;;;;;;;19.65;18.08;;;18.40;87.60;;;;;;5034419;29;20105;-70
2021/07/28 03:49:45;;;;;;;20.38;18.67;;;18.40;87.90;;;;;;5035030;29;20101;-71
2021/07/28 03:52:17;;;;;;;20.48;18.77;;;18.40;88.70;;;;;;5037227;29;20107;-70
2021/07/28 03:54:50;;;;;;;20.27;18.67;;;18.40;88.20;;;;;;5033621;29;20543;-72
2021/07/28 03:57:22;;;;;;;20.38;18.77;;;18.40;88.20;;;;;;5033262;29;20045;-70
2021/07/28 03:59:54;;;;;;;20.90;19.30;;;18.40;89.00;;;;;;5040244;29;20462;-70
2021/07/28 04:02:26;;;;;;;20.70;19.10;;;18.40;89.70;;;;;;5044480;29;20113;-69
2021/07/28 04:04:58;;;;;;;20.52;19.02;;;18.40;89.10;;;;;;5041650;29;20060;-70
2021/07/28 04:07:30;;;;;;;20.88;19.27;;;18.40;88.50;;;;;;5042525;29;20108;-70
2021/07/28 04:10:05;;;;;;;20.65;19.02;;;18.40;87.50;;;;;;5043170;29;20053;-71
2021/07/28 04:12:37;;;;;;;22.17;20.42;;;18.30;87.40;;;;;;5040917;29;20125;-72
2021/07/28 04:15:11;;;;;;;20.85;19.17;;;18.30;87.50;;;;;;5042023;29;20123;-71
2021/07/28 04:17:43;;;;;;;20.67;19.08;;;18.30;88.20;;;;;;5041509;29;20076;-71
2021/07/28 04:20:15;;;;;;;20.42;18.75;;;18.20;87.90;;;;;;5045972;29;20714;-73
2021/07/28 04:22:47;;;;;;;20.73;18.98;;;18.20;87.70;;;;;;5042839;29;20056;-73
2021/07/28 04:25:19;;;;;;;20.35;18.75;;;18.20;88.30;;;;;;5040726;29;20076;-71
2021/07/28 04:27:51;;;;;;;19.67;18.13;;;18.20;88.80;;;;;;5046317;29;20725;-72
2021/07/28 04:30:23;;;;;;;19.98;18.48;;;18.20;89.00;;;;;;5041470;29;20048;-72
2021/07/28 04:32:55;;;;;;;20.23;18.65;;;18.20;89.40;;;;;;5042178;29;20038;-71
2021/07/28 04:35:27;;;;;;;20.67;19.00;;;18.20;88.70;;;;;;5036879;29;20045;-71
2021/07/28 04:37:59;;;;;;;20.02;18.42;;;18.20;89.80;;;;;;5043853;29;20081;-70
2021/07/28 04:40:31;;;;;;;19.90;18.20;;;18.20;88.80;;;;;;5017022;29;20045;-71
2021/07/28 04:43:03;;;;;;;20.48;18.77;;;18.30;88.10;;;;;;5040963;29;20141;-71
2021/07/28 04:45:35;;;;;;;19.90;18.40;;;18.30;88.00;;;;;;5042176;29;20057;-71
2021/07/28 04:48:09;;;;;;;20.70;19.00;;;18.30;87.80;;;;;;5045311;29;20060;-71
2021/07/28 04:50:41;;;;;;;19.30;17.80;;;18.30;87.90;;;;;;5044684;29;20045;-71
2021/07/28 04:53:12;;;;;;;19.98;18.17;;;18.40;88.50;;;;;;5040447;29;20055;-70
2021/07/28 04:55:53;;;;;;;19.65;18.08;;;18.30;88.30;;;;;;5038753;29;20069;-71
2021/07/28 04:58:26;;;;;;;19.27;17.67;;;18.30;88.30;;;;;;5041119;29;20583;-70
2021/07/28 05:00:58;;;;;;;19.17;17.77;;;18.30;88.20;;;;;;5043103;29;20070;-70
2021/07/28 05:03:30;;;;;;;19.35;17.75;;;18.30;87.90;;;;;;5044663;29;20049;-70
2021/07/28 05:06:02;;;;;;;19.77;18.25;;;18.20;88.50;;;;;;5041365;29;20073;-69
2021/07/28 05:08:34;;;;;;;20.55;18.85;;;18.20;88.40;;;;;;5039077;29;20056;-71
2021/07/28 05:11:06;;;;;;;20.90;19.15;;;18.30;88.40;;;;;;5040928;29;20053;-70
2021/07/28 05:13:37;;;;;;;21.00;19.30;;;18.30;88.60;;;;;;5036820;29;20045;-69
2021/07/28 05:16:09;;;;;;;20.83;19.33;;;18.30;88.70;;;;;;5032950;29;20049;-69
2021/07/28 05:18:42;;;;;;;20.42;18.83;;;18.40;89.00;;;;;;5039230;29;20051;-69
2021/07/28 05:21:14;;;;;;;20.75;19.17;;;18.40;89.60;;;;;;5037144;29;20104;-70
2021/07/28 05:23:45;;;;;;;21.63;19.98;;;18.40;90.40;;;;;;5040315;29;20089;-70
2021/07/28 05:26:17;;;;;;;21.58;19.98;;;18.40;90.70;;;;;;5039323;29;20048;-70
2021/07/28 05:28:49;;;;;;;21.60;19.80;;;18.40;91.00;;;;;;5038117;29;20120;-71
2021/07/28 05:31:21;;;;;;;21.35;19.65;;;18.40;90.00;;;;;;5037993;29;20190;-72
2021/07/28 05:33:53;;;;;;;21.48;19.77;;;18.50;90.20;;;;;;5035119;29;20606;-72
2021/07/28 05:36:25;;;;;;;21.95;20.15;;;18.60;89.90;;;;;;5025832;29;20040;-73
2021/07/28 05:38:57;;;;;;;20.95;19.30;;;18.70;90.10;;;;;;5035645;29;20049;-71
2021/07/28 05:41:29;;;;;;;21.55;19.63;;;18.70;89.90;;;;;;5036919;29;20057;-71
2021/07/28 05:44:07;;;;;;;21.33;19.73;;;18.80;90.40;;;;;;5038982;29;20076;-71
2021/07/28 05:46:38;;;;;;;22.00;20.30;;;18.80;90.00;;;;;;5036970;29;20136;-70
2021/07/28 05:49:10;;;;;;;21.60;20.00;;;18.80;90.80;;;;;;5038376;29;20052;-70
2021/07/28 05:51:42;;;;;;;22.10;20.27;;;18.80;90.70;;;;;;5040082;29;20048;-70
2021/07/28 05:54:14;;;;;;;22.85;20.85;;;18.80;91.10;;;;;;5041183;29;20144;-70
2021/07/28 05:56:46;;;;;;;21.98;20.17;;;18.80;90.60;;;;;;5036759;29;20155;-71
2021/07/28 05:59:18;;;;;;;21.27;19.58;;;18.80;90.80;;;;;;5038489;29;20037;-70
2021/07/28 06:01:50;;;;;;;21.48;19.90;;;18.80;90.70;;;;;;5028474;29;20089;-70
2021/07/28 06:04:22;;;;;;;21.63;20.02;;;18.80;90.40;;;;;;5037414;29;20041;-72
2021/07/28 06:06:54;;;;;;;21.38;19.77;;;18.90;90.10;;;;;;5032586;29;20059;-70
2021/07/28 06:09:26;;;;;;;22.77;21.05;;;18.90;90.00;;;;;;5038485;29;20491;-70
2021/07/28 06:11:58;;;;;;;22.67;20.88;;;18.90;90.20;;;;;;5037984;29;20101;-71
2021/07/28 06:14:30;;;;;;;21.95;20.17;;;19.00;90.20;;;;;;5034781;29;20044;-71
2021/07/28 06:17:02;;;;;;;22.92;21.08;;;19.00;90.30;;;;;;5038462;29;20516;-71
2021/07/28 06:19:34;;;;;;;23.27;21.38;;;19.00;90.10;;;;;;5034667;29;20117;-71
2021/07/28 06:22:06;;;;;;;22.15;20.45;;;19.00;90.10;;;;;;5037687;29;20041;-70
2021/07/28 06:24:38;;;;;;;22.42;20.73;;;19.00;90.10;;;;;;5035542;29;20496;-70
2021/07/28 06:27:10;;;;;;;22.98;21.20;;;19.00;89.70;;;;;;5020427;29;20688;-72
2021/07/28 06:29:41;;;;;;;23.33;21.52;;;19.00;89.30;;;;;;5041300;29;20531;-73
2021/07/28 06:32:25;;;;;;;22.73;20.92;;;19.00;89.20;;;;;;5039387;29;20069;-70
2021/07/28 06:34:56;;;;;;;23.08;21.13;;;19.00;89.10;;;;;;5040393;29;20578;-70
2021/07/28 06:37:28;;;;;;;21.55;19.85;;;18.90;88.90;;;;;;5038666;29;20048;-70
2021/07/28 06:40:01;;;;;;;22.17;20.48;;;19.00;88.40;;;;;;5041237;29;20047;-70
2021/07/28 06:42:33;;;;;;;22.17;20.33;;;18.90;88.40;;;;;;5034133;29;20971;-71
2021/07/28 06:45:06;;;;;;;21.98;20.27;;;18.90;88.70;;;;;;5035685;29;20101;-71
2021/07/28 06:47:37;;;;;;;21.38;19.52;;;18.80;88.10;;;;;;5034319;29;20155;-71
2021/07/28 06:50:10;;;;;;;22.13;20.33;;;18.80;88.20;;;;;;5037290;29;20116;-71
2021/07/28 06:52:42;;;;;;;21.80;19.92;;;18.80;88.30;;;;;;5037214;29;20131;-71
2021/07/28 06:55:14;;;;;;;22.13;20.33;;;18.80;88.30;;;;;;5036896;29;20157;-71
2021/07/28 06:57:46;;;;;;;21.67;19.98;;;18.80;88.20;;;;;;5034065;29;20601;-73
2021/07/28 07:00:18;;;;;;;21.95;20.08;;;18.80;88.10;;;;;;5036909;29;20100;-71
2021/07/28 07:02:56;;;;;;;22.80;20.92;;;18.80;88.10;;;;;;5021493;29;20060;-71
2021/07/28 07:05:28;;;;;;;22.23;20.42;;;18.70;88.50;;;;;;5036432;29;20057;-71
2021/07/28 07:08:00;;;;;;;20.73;19.05;;;18.70;88.40;;;;;;5018068;29;20049;-71
2021/07/28 07:10:32;;;;;;;22.27;20.58;;;18.70;88.20;;;;;;5033775;29;20049;-70
2021/07/28 07:13:05;;;;;;;22.60;20.80;;;18.70;88.30;;;;;;5034278;29;20065;-71
2021/07/28 07:15:37;;;;;;;21.05;19.25;;;18.70;88.30;;;;;;5032479;29;20037;-70
2021/07/28 07:18:09;;;;;;;21.27;19.58;;;18.60;88.20;;;;;;5035564;29;20056;-70
2021/07/28 07:20:40;;;;;;;21.00;19.17;;;18.60;88.40;;;;;;5034270;29;21235;-73
2021/07/28 07:23:12;;;;;;;21.33;19.52;;;18.60;88.40;;;;;;5035207;29;20045;-72
2021/07/28 07:25:44;;;;;;;21.10;19.30;;;18.50;88.80;;;;;;5034771;29;20164;-71
2021/07/28 07:28:16;;;;;;;21.45;19.75;;;18.50;88.80;;;;;;5035071;29;20548;-72
2021/07/28 07:30:50;;;;;;;20.95;19.20;;;18.50;89.50;;;;;;5034367;29;20127;-70
2021/07/28 07:36:14;;;;;;;20.52;18.88;;;18.50;90.50;;;;;;5032172;29;20124;-70
2021/07/28 07:38:46;;;;;;;20.95;19.25;;;18.50;90.30;;;;;;5035915;29;20067;-71
2021/07/28 07:41:18;;;;;;;20.90;19.30;;;18.50;90.00;;;;;;5034858;29;20595;-71
2021/07/28 07:43:50;;;;;;;20.90;19.17;;;18.50;89.80;;;;;;5035922;29;20076;-70
2021/07/28 07:46:22;;;;;;;19.05;17.63;;;18.50;89.50;;;;;;5036053;29;20080;-70
2021/07/28 07:48:55;;;;;;;19.70;18.13;;;18.50;88.60;;;;;;5036291;29;20152;-70
2021/07/28 07:51:30;;;;;;;18.50;17.10;;;18.60;88.40;;;;;;5033057;29;20156;-71
2021/07/28 07:54:02;;;;;;;18.55;17.10;;;18.60;87.70;;;;;;5034196;29;20049;-70
2021/07/28 07:56:33;;;;;;;18.40;16.90;;;18.60;87.50;;;;;;5037218;29;20524;-72
2021/07/28 07:59:05;;;;;;;17.98;16.63;;;18.60;86.50;;;;;;5036485;29;20048;-72
2021/07/28 08:01:38;;;;;;;18.25;16.65;;;18.60;86.90;;;;;;5035741;29;20136;-71
2021/07/28 08:04:11;;;;;;;17.98;16.38;;;18.70;87.20;;;;;;5036002;29;20064;-71
2021/07/28 08:06:44;;;;;;;17.45;16.05;;;18.70;87.00;;;;;;5037698;29;20048;-71
2021/07/28 08:09:16;;;;;;;18.15;16.75;;;18.70;85.90;;;;;;5036470;29;20072;-71
2021/07/28 08:11:47;;;;;;;18.08;16.67;;;18.70;86.10;;;;;;5034889;29;20120;-71
2021/07/28 08:14:19;;;;;;;17.48;16.17;;;18.80;86.20;;;;;;5035162;29;20080;-71
2021/07/28 08:16:52;;;;;;;18.08;16.65;;;18.70;84.60;;;;;;5033425;29;20045;-72
2021/07/28 08:19:23;;;;;;;17.50;16.17;;;18.70;85.50;;;;;;5021730;29;20102;-71
2021/07/28 08:21:55;;;;;;;17.90;16.60;;;18.70;85.80;;;;;;5032063;29;20037;-71
2021/07/28 08:24:27;;;;;;;18.67;17.27;;;18.70;85.40;;;;;;5017550;29;20104;-72
2021/07/28 08:26:59;;;;;;;18.00;16.58;;;18.60;84.70;;;;;;5035642;29;20041;-71
2021/07/28 08:29:31;;;;;;;17.63;16.27;;;18.50;86.00;;;;;;5037406;29;20053;-70
2021/07/28 08:32:03;;;;;;;16.98;15.50;;;18.50;85.70;;;;;;5033761;29;20144;-72
2021/07/28 08:34:36;;;;;;;17.50;16.20;;;18.50;85.70;;;;;;5019396;29;20069;-71
2021/07/28 08:37:07;;;;;;;17.58;16.20;;;18.40;86.30;;;;;;5034547;29;20052;-71
2021/07/28 08:39:39;;;;;;;17.67;16.27;;;18.40;86.00;;;;;;5030591;29;20448;-71
2021/07/28 08:42:12;;;;;;;17.50;16.20;;;18.30;86.10;;;;;;5035528;29;20056;-69
2021/07/28 08:44:44;;;;;;;18.25;16.88;;;18.20;85.90;;;;;;5034564;29;20105;-72
2021/07/28 08:47:18;;;;;;;17.92;16.50;;;18.20;86.50;;;;;;5036343;29;20064;-70
2021/07/28 08:49:52;;;;;;;18.25;16.67;;;18.10;86.60;;;;;;5024029;29;20125;-71
2021/07/28 08:52:27;;;;;;;17.90;16.50;;;18.00;87.00;;;;;;5036714;29;20056;-71
2021/07/28 08:54:59;;;;;;;17.25;15.95;;;17.80;86.20;;;;;;5038650;29;20739;-72
2021/07/28 08:57:33;;;;;;;17.48;16.08;;;17.70;86.40;;;;;;5040424;29;20047;-72
2021/07/28 09:00:07;;;;;;;17.42;16.02;;;17.70;87.40;;;;;;5040975;29;20120;-70
2021/07/28 09:02:40;;;;;;;18.20;16.70;;;17.60;87.00;;;;;;5037083;29;20045;-70
2021/07/28 09:05:12;;;;;;;17.80;16.40;;;17.60;87.10;;;;;;5034524;29;20049;-70
2021/07/28 09:07:52;;;;;;;17.08;15.80;;;17.60;86.80;;;;;;5037103;29;20141;-70
2021/07/28 09:10:25;;;;;;;17.30;15.95;;;17.80;87.30;;;;;;5035476;29;20077;-70
2021/07/28 09:12:56;;;;;;;17.95;16.50;;;18.00;86.80;;;;;;5036698;29;20055;-72
2021/07/28 09:15:38;;;;;;;17.25;15.95;;;18.10;86.20;;;;;;5037883;29;20104;-70
2021/07/28 09:18:29;;;;;;;17.23;15.93;;;18.30;86.90;;;;;;5034704;29;20731;-70
2021/07/28 09:21:21;;;;;;;17.90;16.60;;;18.30;87.40;;;;;;5032477;29;20120;-70
2021/07/28 09:24:10;;;;;;;17.25;15.95;;;18.40;87.70;;;;;;5037989;29;20089;-70
2021/07/28 09:26:47;;;;;;;18.00;16.50;;;18.40;86.80;;;;;;5037259;29;20480;-73
2021/07/28 09:29:27;;;;;;;17.55;16.25;;;18.40;86.50;;;;;;5036704;29;20049;-70
2021/07/28 09:32:08;;;;;;;17.67;16.38;;;18.50;87.00;;;;;;5037742;29;20044;-70
2021/07/28 09:34:40;;;;;;;17.30;16.00;;;18.60;87.40;;;;;;5039416;29;20064;-71
2021/07/28 09:37:15;;;;;;;17.70;16.30;;;18.60;88.40;;;;;;5042352;29;20048;-71
2021/07/28 09:39:48;;;;;;;17.42;16.13;;;18.70;87.60;;;;;;5024913;29;20041;-72
2021/07/28 09:42:27;;;;;;;17.45;16.15;;;18.70;87.40;;;;;;5041813;29;20033;-71
2021/07/28 09:44:59;;;;;;;17.38;15.98;;;18.80;88.00;;;;;;5023227;29;20048;-70
2021/07/28 09:47:40;;;;;;;17.65;16.35;;;18.80;88.50;;;;;;5039477;29;20784;-70
2021/07/28 09:50:13;;;;;;;16.58;15.38;;;19.00;88.00;;;;;;5038983;29;20164;-70
2021/07/28 09:52:50;;;;;;;16.40;15.20;;;19.10;85.30;;;;;;5038349;29;20051;-71
2021/07/28 09:55:27;;;;;;;16.88;15.68;;;19.10;85.30;;;;;;5039758;29;20132;-71
2021/07/28 09:58:00;;;;;;;17.13;15.93;;;19.20;86.80;;;;;;5023291;29;20109;-71
2021/07/28 10:00:32;;;;;;;16.30;15.13;;;19.20;84.90;;;;;;5038573;29;20045;-71
2021/07/28 10:03:07;;;;;;;17.20;15.90;;;19.10;85.40;;;;;;5040711;29;20049;-71
2021/07/28 10:05:40;;;;;;;17.77;16.38;;;19.10;85.00;;;;;;5036197;29;20056;-72
2021/07/28 10:08:14;;;;;;;18.13;16.83;;;19.00;87.40;;;;;;5040279;29;20061;-70
2021/07/28 10:10:46;;;;;;;16.95;15.65;;;19.10;87.00;;;;;;5039290;29;20132;-70
2021/07/28 10:13:18;;;;;;;17.00;15.80;;;19.20;88.00;;;;;;5039191;29;20452;-71
2021/07/28 10:15:50;;;;;;;18.13;16.83;;;19.30;86.50;;;;;;5036577;29;20120;-70
2021/07/28 10:18:23;;;;;;;16.98;15.60;;;19.10;86.50;;;;;;5039364;29;20063;-72
2021/07/28 10:21:01;;;;;;;17.13;15.93;;;18.90;87.60;;;;;;5020651;29;20049;-71
2021/07/28 10:23:33;;;;;;;17.23;15.93;;;19.00;86.60;;;;;;5037503;29;20045;-72
2021/07/28 10:26:06;;;;;;;17.67;16.27;;;19.10;87.70;;;;;;5021573;29;20148;-71
2021/07/28 10:28:46;;;;;;;17.83;16.52;;;19.10;88.60;;;;;;5036987;29;20067;-71
2021/07/28 10:31:20;;;;;;;17.77;16.48;;;19.00;87.60;;;;;;5019627;29;20053;-71
2021/07/28 10:33:53;;;;;;;17.33;16.13;;;19.10;87.00;;;;;;5040368;29;20033;-70
2021/07/28 10:36:45;;;;;;;16.98;15.68;;;19.00;86.20;;;;;;5037663;29;20120;-72
2021/07/28 10:39:50;;;;;;;17.48;16.17;;;19.00;86.00;;;;;;5039921;29;20124;-72
2021/07/28 10:42:31;;;;;;;16.92;15.73;;;19.10;86.80;;;;;;5041049;29;20447;-72
2021/07/28 10:45:09;;;;;;;17.38;16.17;;;19.20;86.10;;;;;;5017671;29;20052;-72
2021/07/28 10:47:45;;;;;;;17.38;16.13;;;19.30;86.70;;;;;;5037906;29;20049;-70
2021/07/28 10:50:23;;;;;;;16.85;15.65;;;19.40;85.20;;;;;;5035548;29;20041;-73
2021/07/28 10:52:57;;;;;;;17.05;15.75;;;19.60;84.80;;;;;;5037631;29;20041;-72
2021/07/28 10:55:34;;;;;;;16.85;15.55;;;19.70;83.50;;;;;;5035325;29;20653;-71
2021/07/28 10:58:07;;;;;;;17.58;16.38;;;19.90;84.00;;;;;;5038388;29;20072;-71
2021/07/28 11:00:47;;;;;;;17.65;16.45;;;20.10;85.40;;;;;;5036787;29;20093;-72
2021/07/28 11:03:20;;;;;;;16.90;15.70;;;20.10;83.00;;;;;;5035202;29;20049;-71
2021/07/28 11:06:16;;;;;;;17.00;15.80;;;20.30;83.10;;;;;;5039941;29;20490;-72
2021/07/28 11:08:48;;;;;;;17.15;16.02;;;20.30;82.50;;;;;;5037723;29;20080;-73
2021/07/28 11:11:23;;;;;;;16.95;15.75;;;20.50;82.90;;;;;;5036177;29;20200;-71
2021/07/28 11:13:59;;;;;;;16.63;15.43;;;20.50;82.00;;;;;;5035005;29;20088;-71
2021/07/28 11:16:34;;;;;;;16.52;15.32;;;20.40;79.40;;;;;;5037036;29;20048;-72
2021/07/28 11:19:06;;;;;;;16.10;15.00;;;20.30;80.10;;;;;;5020516;29;20109;-71
2021/07/28 11:21:39;;;;;;;16.27;15.10;;;20.40;79.90;;;;;;5035222;29;20535;-71
2021/07/28 11:24:11;;;;;;;15.70;14.60;;;20.50;80.90;;;;;;5036288;29;20044;-73
2021/07/28 11:26:45;;;;;;;16.23;15.13;;;20.40;80.70;;;;;;5037250;29;20084;-71
2021/07/28 11:29:18;;;;;;;15.90;14.80;;;20.40;79.50;;;;;;5039233;29;20485;-72
2021/07/28 11:31:52;;;;;;;16.10;14.85;;;20.20;78.70;;;;;;5034837;29;20049;-71
2021/07/28 11:34:55;;;;;;;16.60;15.40;;;20.20;83.20;;;;;;5036757;29;20156;-70
2021/07/28 11:37:27;;;;;;;16.88;15.68;;;20.20;81.70;;;;;;5035230;29;20764;-70
2021/07/28 11:39:59;;;;;;;15.70;14.60;;;20.20;83.00;;;;;;5037961;29;20045;-69
2021/07/28 11:42:31;;;;;;;16.02;14.93;;;20.30;83.50;;;;;;5036165;29;20100;-72
2021/07/28 11:45:04;;;;;;;15.98;14.88;;;20.40;81.50;;;;;;5021022;29;20071;-72
2021/07/28 11:47:36;;;;;;;15.93;14.82;;;20.30;82.70;;;;;;5037814;29;20559;-70
2021/07/28 11:50:08;;;;;;;16.30;15.20;;;20.20;82.50;;;;;;5012492;29;20092;-70
2021/07/28 11:52:47;;;;;;;15.20;14.20;;;20.20;83.10;;;;;;5032995;29;20049;-70
2021/07/28 11:55:25;;;;;;;16.48;15.27;;;20.10;81.80;;;;;;5034852;29;20056;-70
2021/07/28 11:57:57;;;;;;;15.95;14.75;;;20.00;81.10;;;;;;5038011;29;20056;-70
2021/07/28 12:00:30;;;;;;;15.40;14.32;;;19.80;82.90;;;;;;4994345;29;20050;-70
2021/07/28 12:03:27;;;;;;;14.75;13.75;;;19.70;82.20;;;;;;5035336;29;20468;-71
2021/07/28 12:06:05;;;;;;;15.05;14.05;;;19.70;83.20;;;;;;5033492;29;20423;-70
2021/07/28 12:08:40;;;;;;;14.73;13.73;;;19.60;83.60;;;;;;5040694;29;20072;-71
2021/07/28 12:11:12;;;;;;;14.93;13.90;;;19.60;84.10;;;;;;5038681;29;20076;-70
2021/07/28 12:13:46;;;;;;;14.35;13.35;;;19.70;85.80;;;;;;5050380;29;20755;-70
2021/07/28 12:16:18;;;;;;;14.13;13.15;;;19.60;84.80;;;;;;5035646;29;20049;-70
2021/07/28 12:18:50;;;;;;;14.98;13.88;;;19.70;85.60;;;;;;5022439;29;20131;-70
2021/07/28 12:21:22;;;;;;;15.65;14.45;;;19.60;85.80;;;;;;5040583;29;20041;-69
2021/07/28 12:23:57;;;;;;;15.90;14.70;;;19.60;86.70;;;;;;5038388;29;20045;-69
2021/07/28 12:26:49;;;;;;;15.98;14.80;;;19.60;85.40;;;;;;5037406;29;20072;-71
2021/07/28 12:29:35;;;;;;;16.23;14.88;;;19.50;86.20;;;;;;5036422;29;20420;-71
2021/07/28 12:32:14;;;;;;;15.48;14.35;;;19.50;85.80;;;;;;5031737;29;20053;-70
2021/07/28 12:34:46;;;;;;;16.08;14.90;;;19.50;86.10;;;;;;5039413;29;20045;-70
2021/07/28 12:37:24;;;;;;;15.48;14.38;;;19.50;85.90;;;;;;5022536;29;20080;-70
2021/07/28 12:39:58;;;;;;;15.60;14.50;;;19.60;86.30;;;;;;5038506;29;20508;-71
2021/07/28 12:42:34;;;;;;;16.10;14.90;;;19.60;86.40;;;;;;5035872;29;20048;-71
2021/07/28 12:45:10;;;;;;;15.95;14.85;;;19.70;86.80;;;;;;5039957;29;20143;-71
2021/07/28 12:47:42;;;;;;;15.10;14.00;;;19.70;85.60;;;;;;5038451;29;20076;-72
2021/07/28 12:50:14;;;;;;;15.95;14.63;;;19.60;85.80;;;;;;5038183;29;20045;-71
2021/07/28 12:52:46;;;;;;;15.90;14.63;;;19.70;86.20;;;;;;5040140;29;20053;-71
2021/07/28 12:55:18;;;;;;;16.60;15.40;;;19.60;87.50;;;;;;5033362;29;20064;-72
2021/07/28 12:57:50;;;;;;;16.70;15.50;;;19.60;86.90;;;;;;5040215;29;20133;-72
2021/07/28 13:00:22;;;;;;;16.30;15.20;;;19.60;87.20;;;;;;5040387;29;20094;-71
2021/07/28 13:02:55;;;;;;;15.48;14.35;;;19.60;87.40;;;;;;5040021;29;20627;-71
2021/07/28 13:05:27;;;;;;;16.40;15.10;;;19.70;87.00;;;;;;5037670;29;20129;-70